Time;durP1;ratioP1;P1;durP2;ratioP2;P2;SDS_P1;SDS_P2;PMS_P1;PMS_P2;Temp;Humidity;BMP_temperature;BMP_pressure;BME280_temperature;BME280_humidity;BME280_pressure;Samples;Min_cycle;Max_cycle;Signal;HPM_P1;HPM_P2
2021/05/18 04:04:58;;;;;;;3.67;3.37;;;8.40;96.30;;;;;;4995035;28;20995;-76
2021/05/18 04:10:14;;;;;;;4.40;3.70;;;8.40;96.30;;;;;;4994967;28;20435;-76
2021/05/18 04:18:02;;;;;;;4.40;3.10;;;8.40;96.30;;;;;;5007379;28;20423;-76
2021/05/18 04:21:15;;;;;;;6.73;3.57;;;8.40;96.30;;;;;;5002163;28;20449;-75
2021/05/18 04:23:32;;;;;;;4.67;4.00;;;8.40;96.30;;;;;;4985846;28;20449;-75
2021/05/18 05:06:48;;;;;;;6.47;4.90;;;8.90;96.30;;;;;;4992271;28;20424;-77
2021/05/18 05:09:31;;;;;;;5.50;4.43;;;8.90;96.30;;;;;;4991799;28;20184;-78
2021/05/18 05:14:41;;;;;;;4.60;4.20;;;9.20;96.30;;;;;;4976338;28;20959;-77
2021/05/18 05:17:06;;;;;;;4.77;4.00;;;9.40;96.30;;;;;;4983899;28;20488;-78
2021/05/18 05:19:33;;;;;;;5.33;4.03;;;9.60;96.30;;;;;;5008789;28;20182;-78
2021/05/18 05:22:02;;;;;;;5.80;3.97;;;9.70;96.30;;;;;;4993821;28;20201;-78
2021/05/18 05:24:28;;;;;;;4.70;3.53;;;9.80;96.30;;;;;;4994032;28;20412;-77
2021/05/18 05:26:54;;;;;;;5.10;4.27;;;9.70;96.30;;;;;;5000048;28;20535;-78
2021/05/18 05:29:21;;;;;;;4.83;4.20;;;9.70;96.30;;;;;;5009835;28;20169;-77
2021/05/18 05:31:48;;;;;;;7.53;4.17;;;9.80;96.30;;;;;;4991741;28;20443;-77
2021/05/18 05:34:14;;;;;;;4.97;3.53;;;9.70;96.30;;;;;;4993676;28;20408;-77
2021/05/18 05:36:40;;;;;;;7.27;3.90;;;9.50;96.30;;;;;;4992529;28;20763;-78
2021/05/18 05:39:27;;;;;;;4.80;4.00;;;9.40;96.30;;;;;;4992628;28;20440;-78
2021/05/18 05:41:54;;;;;;;5.00;3.73;;;9.40;96.30;;;;;;4994409;28;20217;-77
2021/05/18 05:44:21;;;;;;;5.50;3.63;;;9.30;96.30;;;;;;5008149;28;20504;-78
2021/05/18 05:46:46;;;;;;;4.13;3.73;;;9.20;96.30;;;;;;5009616;28;20408;-78
2021/05/18 05:49:12;;;;;;;5.90;4.03;;;9.20;96.30;;;;;;4993087;28;20968;-78
2021/05/18 05:51:37;;;;;;;4.40;4.03;;;9.10;96.30;;;;;;4994123;28;20209;-77
2021/05/18 05:54:04;;;;;;;7.00;4.30;;;9.20;96.30;;;;;;4992618;28;20162;-77
2021/05/18 05:56:29;;;;;;;5.10;4.27;;;9.20;96.30;;;;;;4992580;28;20178;-77
2021/05/18 05:58:59;;;;;;;5.73;3.93;;;9.20;96.30;;;;;;4989865;28;20535;-77
2021/05/18 06:01:24;;;;;;;6.90;3.97;;;9.20;96.30;;;;;;4991229;28;20464;-77
2021/05/18 06:03:50;;;;;;;6.40;3.87;;;9.20;96.30;;;;;;4992736;28;21021;-77
2021/05/18 06:06:15;;;;;;;5.30;3.80;;;9.20;96.30;;;;;;4992274;28;20189;-77
2021/05/18 06:08:43;;;;;;;5.10;3.73;;;9.30;96.30;;;;;;4993038;28;20633;-77
2021/05/18 06:12:01;;;;;;;7.23;4.50;;;9.40;96.30;;;;;;4992850;28;20185;-77
2021/05/18 06:16:50;;;;;;;7.27;4.70;;;10.40;96.30;;;;;;4992315;28;21032;-77
2021/05/18 06:43:50;;;;;;;4.00;2.47;;;13.70;96.30;;;;;;4992558;28;20830;-78
2021/05/18 06:48:48;;;;;;;6.17;3.67;;;13.40;96.30;;;;;;4992789;28;20432;-78
2021/05/18 06:51:13;;;;;;;4.30;2.70;;;12.90;96.30;;;;;;4992526;28;20425;-78
2021/05/18 06:53:39;;;;;;;3.73;3.33;;;12.90;96.30;;;;;;4992827;28;20888;-78
2021/05/18 06:56:05;;;;;;;3.20;2.87;;;13.50;96.30;;;;;;4992516;28;20209;-78
2021/05/18 07:01:05;;;;;;;4.27;3.17;;;14.40;96.30;;;;;;4992775;28;20575;-78
2021/05/18 07:03:36;;;;;;;3.57;2.97;;;15.30;96.30;;;;;;4992414;28;20452;-78
2021/05/18 07:11:12;;;;;;;5.00;2.90;;;14.60;96.30;;;;;;4996130;28;20440;-78
2021/05/18 07:13:38;;;;;;;7.33;3.00;;;14.40;96.30;;;;;;4996168;28;20177;-78
2021/05/18 07:16:04;;;;;;;4.30;3.17;;;14.80;96.30;;;;;;4996041;28;20435;-78
2021/05/18 07:18:29;;;;;;;6.50;3.30;;;15.40;94.90;;;;;;4995426;28;20186;-78
2021/05/18 07:20:54;;;;;;;6.10;2.90;;;15.60;96.30;;;;;;4995886;28;20240;-78
2021/05/18 07:23:23;;;;;;;6.87;3.00;;;16.00;96.30;;;;;;4993865;28;20201;-78
2021/05/18 07:25:49;;;;;;;5.93;3.27;;;15.90;91.60;;;;;;4996210;28;20184;-78
2021/05/18 07:28:16;;;;;;;3.33;2.57;;;16.30;93.50;;;;;;4995521;28;20404;-78
2021/05/18 07:30:42;;;;;;;4.97;2.53;;;16.10;90.60;;;;;;4996086;28;20282;-78
2021/05/18 07:33:08;;;;;;;7.90;3.60;;;15.30;91.80;;;;;;4995748;28;20425;-78
2021/05/18 07:35:34;;;;;;;6.63;3.10;;;14.20;93.20;;;;;;4995737;28;20413;-78
2021/05/18 07:38:00;;;;;;;4.70;2.77;;;13.50;96.30;;;;;;4994070;28;20181;-78
2021/05/18 07:40:25;;;;;;;4.03;3.10;;;13.60;96.30;;;;;;4995593;28;20430;-78
2021/05/18 07:42:52;;;;;;;6.40;3.30;;;14.60;96.30;;;;;;4995579;28;20232;-78
2021/05/18 07:45:25;;;;;;;4.23;3.13;;;14.40;96.30;;;;;;4995612;28;20630;-78
2021/05/18 07:47:52;;;;;;;4.90;3.10;;;13.50;96.30;;;;;;4995503;28;20417;-78
2021/05/18 07:50:25;;;;;;;6.43;3.17;;;12.80;96.30;;;;;;4995486;28;20448;-78
2021/05/18 08:01:16;;;;;;;9.13;3.90;;;14.60;96.30;;;;;;4996558;28;20470;-79
2021/05/18 08:06:26;;;;;;;6.30;3.73;;;15.00;95.00;;;;;;4995355;28;20956;-79
2021/05/18 08:08:51;;;;;;;5.73;3.23;;;14.20;96.30;;;;;;4995576;28;20413;-78
2021/05/18 08:11:17;;;;;;;6.10;3.50;;;13.60;96.30;;;;;;4995517;28;20810;-79
2021/05/18 08:13:43;;;;;;;6.37;4.27;;;13.80;96.30;;;;;;4995453;28;20181;-78
2021/05/18 08:19:03;;;;;;;5.30;3.47;;;13.20;96.30;;;;;;4995927;28;20168;-79
2021/05/18 09:29:02;;;;;;;7.20;3.90;;;12.80;96.30;;;;;;4993730;28;20482;-78
2021/05/18 10:27:04;;;;;;;5.40;3.70;;;13.70;96.30;;;;;;4992351;28;20427;-79
2021/05/18 10:34:35;;;;;;;13.87;5.33;;;11.80;96.30;;;;;;4992329;28;20788;-78
2021/05/18 10:37:27;;;;;;;8.20;5.10;;;11.60;96.30;;;;;;4992022;28;20196;-78
2021/05/18 10:40:24;;;;;;;6.87;5.30;;;11.80;96.30;;;;;;4994361;28;20416;-78
2021/05/18 10:43:11;;;;;;;5.70;4.33;;;12.20;96.30;;;;;;4996676;28;20452;-78
2021/05/18 10:45:53;;;;;;;8.67;5.50;;;12.70;96.30;;;;;;4995312;28;20425;-77
2021/05/18 10:48:44;;;;;;;9.43;5.50;;;13.10;96.30;;;;;;4996204;28;20436;-77
2021/05/18 10:51:50;;;;;;;7.50;5.37;;;13.70;96.30;;;;;;4993750;28;20448;-77
2021/05/18 10:54:25;;;;;;;10.70;5.80;;;14.30;96.30;;;;;;4995898;28;20425;-77
2021/05/18 10:56:59;;;;;;;8.77;5.57;;;16.00;96.30;;;;;;4994845;28;20408;-77
2021/05/18 10:59:27;;;;;;;8.63;5.73;;;17.10;91.00;;;;;;4995318;28;20454;-77
2021/05/18 11:02:07;;;;;;;6.60;5.87;;;17.30;96.20;;;;;;4994575;28;20885;-77
2021/05/18 11:04:38;;;;;;;8.57;5.20;;;17.90;95.40;;;;;;4994536;28;20423;-77
2021/05/18 11:07:05;;;;;;;5.77;4.80;;;18.00;93.90;;;;;;4994207;28;20409;-78
2021/05/18 11:09:33;;;;;;;6.40;4.80;;;18.10;95.10;;;;;;4995864;28;20508;-78
2021/05/18 11:12:02;;;;;;;5.83;5.10;;;17.60;91.40;;;;;;4995894;28;20512;-78
2021/05/18 11:14:41;;;;;;;5.83;4.40;;;18.20;96.30;;;;;;4995968;28;20826;-78
2021/05/18 11:17:11;;;;;;;7.90;4.73;;;17.90;93.20;;;;;;4996303;28;20404;-78
2021/05/18 11:20:00;;;;;;;5.97;3.67;;;17.80;91.80;;;;;;4995243;28;20416;-78
2021/05/18 11:25:13;;;;;;;5.60;3.57;;;19.00;92.60;;;;;;4996524;28;20400;-78
2021/05/18 11:27:39;;;;;;;4.10;3.37;;;18.70;87.80;;;;;;4994848;28;20762;-78
2021/05/18 11:30:07;;;;;;;5.93;3.30;;;17.60;88.90;;;;;;4996043;28;20405;-78
2021/05/18 11:32:32;;;;;;;4.87;3.10;;;16.50;87.80;;;;;;4995682;28;20665;-78
2021/05/18 11:35:03;;;;;;;7.80;3.57;;;15.80;93.40;;;;;;4995725;28;20475;-78
2021/05/18 11:37:30;;;;;;;4.87;2.63;;;15.60;90.10;;;;;;4995260;28;20166;-78
2021/05/18 11:40:16;;;;;;;7.43;3.23;;;15.60;93.70;;;;;;4995775;28;20404;-78
2021/05/18 11:42:42;;;;;;;3.30;2.43;;;15.60;93.80;;;;;;4995510;28;20883;-78
2021/05/18 11:45:19;;;;;;;4.03;2.77;;;16.70;93.90;;;;;;4994844;28;20801;-78
2021/05/18 11:47:47;;;;;;;12.17;3.30;;;16.80;91.20;;;;;;4995174;28;20395;-78
2021/05/18 11:50:21;;;;;;;4.97;2.97;;;16.40;89.40;;;;;;4994604;28;20467;-78
2021/05/18 11:52:47;;;;;;;5.20;3.47;;;16.20;94.80;;;;;;4995307;28;20419;-78
2021/05/18 11:55:25;;;;;;;3.93;2.67;;;15.80;91.60;;;;;;4994132;28;20499;-78
2021/05/18 11:57:53;;;;;;;5.00;3.03;;;15.30;96.10;;;;;;4994687;28;20827;-78
2021/05/18 12:00:37;;;;;;;5.13;2.93;;;14.70;96.30;;;;;;4993916;28;20428;-79
2021/05/18 12:03:04;;;;;;;8.07;3.40;;;14.20;96.30;;;;;;4995518;28;20452;-78
2021/05/18 12:05:30;;;;;;;9.50;3.57;;;13.90;96.30;;;;;;4994930;28;20425;-78
2021/05/18 12:07:56;;;;;;;6.90;4.00;;;14.50;96.30;;;;;;4994538;28;20459;-78
2021/05/18 12:10:35;;;;;;;6.77;3.40;;;15.80;96.30;;;;;;4995014;28;20908;-78
2021/05/18 12:13:01;;;;;;;6.97;3.20;;;16.50;96.30;;;;;;4995025;28;20819;-78
2021/05/18 12:15:27;;;;;;;4.07;1.97;;;16.50;96.30;;;;;;4995008;28;20416;-78
2021/05/18 12:17:54;;;;;;;6.10;2.53;;;16.30;95.90;;;;;;4994294;28;20416;-78
2021/05/18 12:20:20;;;;;;;3.17;1.70;;;16.60;96.30;;;;;;4995139;28;20470;-78
2021/05/18 12:22:47;;;;;;;2.27;1.67;;;17.00;96.30;;;;;;4994990;28;20863;-78
2021/05/18 12:25:33;;;;;;;2.07;0.80;;;16.90;96.00;;;;;;4995050;28;20216;-78
2021/05/18 12:28:07;;;;;;;2.50;1.10;;;17.10;88.10;;;;;;4993937;28;20432;-77
2021/05/18 12:30:38;;;;;;;1.50;1.10;;;17.00;86.50;;;;;;4994711;28;20429;-78
2021/05/18 12:33:04;;;;;;;2.37;1.03;;;17.00;87.80;;;;;;4993344;28;20925;-78
2021/05/18 12:35:29;;;;;;;2.23;1.10;;;16.80;93.50;;;;;;4994663;28;20436;-78
2021/05/18 12:37:55;;;;;;;1.47;0.90;;;17.00;88.60;;;;;;4994167;28;20181;-77
2021/05/18 12:40:32;;;;;;;2.13;0.77;;;16.90;86.50;;;;;;4994478;28;20681;-77
2021/05/18 12:43:09;;;;;;;1.10;0.80;;;16.40;90.20;;;;;;4994264;28;20204;-78
2021/05/18 12:45:36;;;;;;;0.90;0.67;;;16.20;88.20;;;;;;4994083;28;20424;-77
2021/05/18 12:48:02;;;;;;;2.83;0.80;;;16.60;91.50;;;;;;4992459;28;20421;-76
2021/05/18 12:50:40;;;;;;;2.33;0.83;;;16.80;86.10;;;;;;4993347;28;20412;-77
2021/05/18 12:53:20;;;;;;;1.67;0.93;;;17.00;86.50;;;;;;4994118;28;20200;-77
2021/05/18 12:55:46;;;;;;;1.63;0.93;;;17.80;89.50;;;;;;4993264;28;20589;-77
2021/05/18 12:58:11;;;;;;;0.90;0.70;;;18.20;85.30;;;;;;4993168;28;20854;-77
2021/05/18 13:00:39;;;;;;;2.70;1.00;;;18.00;88.20;;;;;;4993485;28;20213;-77
2021/05/18 13:03:23;;;;;;;3.83;0.90;;;17.70;82.20;;;;;;4992494;28;20197;-77
2021/05/18 13:05:52;;;;;;;3.13;1.00;;;17.90;89.60;;;;;;4993661;28;20393;-76
2021/05/18 13:08:19;;;;;;;1.00;0.70;;;17.40;86.50;;;;;;4992060;28;20409;-77
2021/05/18 13:10:53;;;;;;;3.00;1.23;;;17.50;84.80;;;;;;4993826;28;20453;-77
2021/05/18 13:13:20;;;;;;;1.83;0.70;;;18.10;88.30;;;;;;4993626;28;20433;-77
2021/05/18 13:15:47;;;;;;;3.30;0.80;;;18.10;86.30;;;;;;4993608;28;20420;-77
2021/05/18 13:18:14;;;;;;;2.00;0.90;;;18.70;84.90;;;;;;4993101;28;20932;-77
2021/05/18 13:20:50;;;;;;;1.10;0.70;;;18.90;82.40;;;;;;4988516;28;20455;-77
2021/05/18 13:23:34;;;;;;;1.10;0.80;;;18.30;86.30;;;;;;4988216;28;20527;-77
2021/05/18 13:28:44;;;;;;;1.43;0.90;;;18.60;83.30;;;;;;5012666;28;20465;-78
2021/05/18 13:31:10;;;;;;;1.57;0.83;;;18.30;81.70;;;;;;4993351;28;20504;-77
2021/05/18 13:33:36;;;;;;;1.90;0.97;;;17.90;85.30;;;;;;4993456;28;20938;-78
2021/05/18 13:36:02;;;;;;;1.70;1.10;;;17.90;83.90;;;;;;4992025;28;20659;-77
2021/05/18 13:38:27;;;;;;;1.43;0.80;;;17.20;82.30;;;;;;4992913;28;20585;-78
2021/05/18 13:40:53;;;;;;;1.77;0.80;;;16.90;84.00;;;;;;4991782;28;20232;-77
2021/05/18 13:43:19;;;;;;;1.13;0.90;;;16.30;85.80;;;;;;4993222;28;20579;-77
2021/05/18 13:45:44;;;;;;;1.47;1.00;;;16.20;86.90;;;;;;4993191;28;20176;-77
2021/05/18 13:48:10;;;;;;;1.37;1.27;;;15.70;83.60;;;;;;4992179;28;20428;-77
2021/05/18 13:50:36;;;;;;;3.83;1.00;;;15.10;86.00;;;;;;4992640;28;20251;-77
2021/05/18 13:53:02;;;;;;;1.10;0.80;;;15.00;90.80;;;;;;4992502;28;20170;-77
2021/05/18 13:55:28;;;;;;;1.00;0.80;;;14.90;89.80;;;;;;4991743;28;20495;-78
2021/05/18 13:57:53;;;;;;;1.80;0.87;;;15.40;90.70;;;;;;4992516;28;20500;-77
2021/05/18 14:00:21;;;;;;;8.50;1.10;;;16.00;92.30;;;;;;4992268;28;20186;-77
2021/05/18 14:02:47;;;;;;;1.10;0.80;;;15.90;91.80;;;;;;4993065;28;20205;-77
2021/05/18 14:05:19;;;;;;;1.43;0.90;;;16.10;89.80;;;;;;4992572;28;20451;-78
2021/05/18 14:10:35;;;;;;;1.50;0.90;;;15.50;93.70;;;;;;4992751;28;20427;-77
2021/05/18 14:13:01;;;;;;;1.67;1.03;;;14.50;95.70;;;;;;4992672;28;20507;-78
2021/05/18 14:15:26;;;;;;;2.50;0.70;;;14.20;96.20;;;;;;4992557;28;20190;-77
2021/05/18 14:17:52;;;;;;;1.00;0.80;;;14.40;96.30;;;;;;4992080;28;20201;-77
2021/05/18 14:20:17;;;;;;;0.90;0.80;;;14.30;96.30;;;;;;4991444;28;20215;-78
2021/05/18 14:22:43;;;;;;;2.47;1.00;;;14.40;96.30;;;;;;4992676;28;20197;-77
2021/05/18 14:25:09;;;;;;;1.30;0.87;;;14.60;96.30;;;;;;4992599;28;20213;-77
2021/05/18 14:27:37;;;;;;;2.13;0.70;;;14.70;94.60;;;;;;4991968;28;20756;-77
2021/05/18 14:30:11;;;;;;;1.43;0.80;;;14.50;96.30;;;;;;4991408;28;20177;-77
2021/05/18 14:32:37;;;;;;;1.47;0.80;;;14.80;96.30;;;;;;4991483;28;20448;-77
2021/05/18 14:35:08;;;;;;;1.20;0.80;;;14.80;93.50;;;;;;4992684;28;20412;-77
2021/05/18 14:37:33;;;;;;;2.43;0.97;;;15.10;96.30;;;;;;4992301;28;20427;-76
2021/05/18 14:40:10;;;;;;;1.13;0.70;;;15.60;93.60;;;;;;4992392;28;20417;-77
2021/05/18 14:45:28;;;;;;;1.30;0.60;;;16.20;94.10;;;;;;4992152;28;20420;-78
2021/05/18 14:55:58;;;;;;;0.87;0.57;;;14.70;90.10;;;;;;4993369;28;20455;-76
2021/05/18 14:58:24;;;;;;;1.13;0.73;;;14.50;91.50;;;;;;5007454;28;20514;-79
2021/05/18 15:00:50;;;;;;;1.10;0.70;;;14.50;91.90;;;;;;4995812;28;20264;-77
2021/05/18 15:03:15;;;;;;;0.90;0.63;;;14.60;91.00;;;;;;5001282;28;20217;-78
2021/05/18 15:05:41;;;;;;;2.50;0.63;;;14.60;89.50;;;;;;4992511;28;20180;-78
2021/05/18 15:08:07;;;;;;;1.57;0.70;;;14.60;89.30;;;;;;5004680;28;20236;-79
2021/05/18 15:10:34;;;;;;;1.40;0.60;;;15.00;94.70;;;;;;5011067;28;20550;-78
2021/05/18 15:13:00;;;;;;;0.90;0.60;;;15.90;95.00;;;;;;4999887;28;20444;-79
2021/05/18 15:15:26;;;;;;;0.90;0.70;;;16.60;92.90;;;;;;4992068;28;20409;-78
2021/05/18 15:17:55;;;;;;;1.27;0.60;;;17.20;83.50;;;;;;5001880;28;20796;-77
2021/05/18 15:20:21;;;;;;;1.23;0.80;;;17.10;83.70;;;;;;5011831;28;20503;-78
2021/05/18 15:22:47;;;;;;;1.30;0.70;;;17.20;82.90;;;;;;5012715;28;20893;-77
2021/05/18 15:25:12;;;;;;;2.90;0.70;;;17.30;85.20;;;;;;5011815;28;20676;-76
2021/05/18 15:27:38;;;;;;;1.00;0.67;;;17.10;85.40;;;;;;5013569;28;20172;-76
2021/05/18 15:30:05;;;;;;;3.23;0.70;;;17.50;87.90;;;;;;5012393;28;20263;-77
2021/05/18 15:32:31;;;;;;;1.60;0.83;;;17.50;84.80;;;;;;5013801;28;20197;-78
2021/05/18 15:34:57;;;;;;;1.83;0.80;;;17.30;82.00;;;;;;5015600;28;20527;-77
2021/05/18 15:37:22;;;;;;;1.33;0.70;;;17.00;84.80;;;;;;5012666;28;20237;-77
2021/05/18 15:39:48;;;;;;;1.63;0.70;;;17.00;86.90;;;;;;5015422;28;20267;-77
2021/05/18 15:42:13;;;;;;;1.13;0.70;;;17.10;80.40;;;;;;5000158;28;20276;-77
2021/05/18 15:44:39;;;;;;;2.87;0.80;;;17.40;85.00;;;;;;4997905;28;20711;-77
2021/05/18 15:47:05;;;;;;;2.50;0.97;;;16.80;84.70;;;;;;5015562;28;20612;-79
2021/05/18 15:49:31;;;;;;;1.30;0.70;;;16.60;82.30;;;;;;5001726;28;20717;-78
2021/05/18 15:51:57;;;;;;;1.33;0.83;;;16.80;85.10;;;;;;4995993;28;20444;-79
2021/05/18 15:54:24;;;;;;;1.77;0.90;;;16.30;85.40;;;;;;4995289;28;20178;-78
2021/05/18 15:56:50;;;;;;;9.23;0.93;;;16.00;85.20;;;;;;5011409;28;21005;-78
2021/05/18 15:59:15;;;;;;;2.97;1.00;;;15.30;87.20;;;;;;5014738;28;20447;-78
2021/05/18 16:01:41;;;;;;;1.93;1.00;;;14.70;89.10;;;;;;5005832;28;20213;-79
2021/05/18 16:04:08;;;;;;;1.20;0.80;;;14.40;89.40;;;;;;4995381;28;20575;-78
2021/05/18 16:06:39;;;;;;;1.07;0.63;;;13.80;92.90;;;;;;4999164;28;20424;-78
2021/05/18 16:09:05;;;;;;;3.43;0.70;;;13.40;94.50;;;;;;4993462;28;20413;-78
2021/05/18 16:11:30;;;;;;;5.53;0.80;;;12.90;95.60;;;;;;4994906;28;20451;-78
2021/05/18 16:13:56;;;;;;;2.43;0.80;;;11.90;96.30;;;;;;4993586;28;20182;-77
2021/05/18 16:16:21;;;;;;;1.10;0.70;;;11.50;96.30;;;;;;4994691;28;20221;-77
2021/05/18 16:18:47;;;;;;;1.13;0.60;;;11.20;96.30;;;;;;4994557;28;20728;-77
2021/05/18 16:21:18;;;;;;;3.70;0.70;;;10.90;96.30;;;;;;5000091;28;20287;-77
2021/05/18 16:23:48;;;;;;;1.50;0.70;;;10.50;96.30;;;;;;5007933;28;20198;-77
2021/05/18 16:26:15;;;;;;;1.30;0.77;;;10.20;96.30;;;;;;4994138;28;20802;-77
2021/05/18 16:28:41;;;;;;;2.50;0.80;;;10.10;96.30;;;;;;4992036;28;20853;-77
2021/05/18 16:31:07;;;;;;;1.67;1.23;;;10.00;96.30;;;;;;4997576;28;20479;-77
2021/05/18 16:33:35;;;;;;;1.47;0.73;;;9.70;96.30;;;;;;4994789;28;20200;-77
2021/05/18 16:36:01;;;;;;;3.00;0.83;;;9.60;96.30;;;;;;4994384;28;20452;-77
2021/05/18 16:38:26;;;;;;;1.10;0.70;;;9.40;96.30;;;;;;5009605;28;20947;-78
2021/05/18 16:40:53;;;;;;;2.60;1.00;;;9.20;96.30;;;;;;4994247;28;20436;-78
2021/05/18 16:43:23;;;;;;;5.80;1.10;;;9.10;96.30;;;;;;4994196;28;20201;-78
2021/05/18 16:45:50;;;;;;;1.93;0.80;;;8.90;96.30;;;;;;4996422;28;20841;-79
2021/05/18 16:48:16;;;;;;;2.23;1.33;;;8.70;96.30;;;;;;4994791;28;20425;-80
2021/05/18 16:50:42;;;;;;;2.67;2.27;;;8.70;96.30;;;;;;4993821;28;20586;-79
2021/05/18 16:53:09;;;;;;;1.00;0.80;;;8.60;96.30;;;;;;4994988;28;20417;-78
2021/05/18 16:55:36;;;;;;;1.77;0.70;;;8.60;96.30;;;;;;4993648;28;20435;-78
2021/05/18 16:58:01;;;;;;;3.23;0.60;;;8.50;96.30;;;;;;4993517;28;20417;-78
2021/05/18 17:00:27;;;;;;;0.80;0.60;;;8.60;96.30;;;;;;4994439;28;20927;-79
2021/05/18 17:02:53;;;;;;;1.33;1.10;;;8.70;96.30;;;;;;4994130;28;20207;-79
2021/05/18 17:05:18;;;;;;;5.60;5.07;;;8.70;96.30;;;;;;4993727;28;20200;-79
2021/05/18 17:07:44;;;;;;;1.63;1.40;;;8.80;96.30;;;;;;4993290;28;20170;-78
2021/05/18 17:10:10;;;;;;;1.43;0.90;;;8.80;96.30;;;;;;4997856;28;20228;-79
2021/05/18 17:12:35;;;;;;;3.87;1.10;;;8.90;96.30;;;;;;4993545;28;20204;-79
2021/05/18 17:15:01;;;;;;;1.57;1.47;;;8.90;96.30;;;;;;4994479;28;20473;-79
2021/05/18 17:17:26;;;;;;;17.13;8.03;;;9.00;96.30;;;;;;4995215;28;20177;-79
2021/05/18 17:19:52;;;;;;;1.73;1.20;;;8.90;96.30;;;;;;4999081;28;20177;-79
2021/05/18 17:22:18;;;;;;;3.00;1.70;;;8.90;96.30;;;;;;5014276;28;20197;-79
2021/05/18 17:24:45;;;;;;;7.23;6.63;;;9.00;96.30;;;;;;5007884;28;20178;-79
2021/05/18 17:27:10;;;;;;;4.43;3.70;;;8.90;96.30;;;;;;4993789;28;20409;-78
2021/05/18 17:29:36;;;;;;;2.40;1.77;;;8.90;96.30;;;;;;5003709;28;20943;-79
2021/05/18 17:32:04;;;;;;;2.80;2.60;;;8.90;96.30;;;;;;5003542;28;20205;-78
2021/05/18 17:34:30;;;;;;;4.03;1.90;;;9.00;96.30;;;;;;4994245;28;20174;-78
2021/05/18 17:36:55;;;;;;;3.07;1.60;;;9.00;96.30;;;;;;4993492;28;20443;-78
2021/05/18 17:39:24;;;;;;;3.07;2.50;;;8.90;96.30;;;;;;4997909;28;20331;-79
2021/05/18 17:41:49;;;;;;;3.93;1.50;;;8.90;96.30;;;;;;5000690;28;20201;-79
2021/05/18 17:44:16;;;;;;;2.00;1.63;;;8.90;96.30;;;;;;4998319;28;20814;-78
2021/05/18 17:46:41;;;;;;;3.60;1.90;;;8.80;96.30;;;;;;4995671;28;20166;-79
2021/05/18 17:49:08;;;;;;;3.97;2.37;;;8.70;96.30;;;;;;5000495;28;20920;-79
2021/05/18 17:51:34;;;;;;;3.53;2.07;;;8.70;96.30;;;;;;4993898;28;20225;-79
2021/05/18 17:54:02;;;;;;;4.10;2.00;;;8.60;96.30;;;;;;5009108;28;20419;-79
2021/05/18 17:56:27;;;;;;;4.70;2.77;;;8.60;96.30;;;;;;4993604;28;20516;-79
2021/05/18 17:58:53;;;;;;;3.63;1.47;;;8.60;96.30;;;;;;5009461;28;21152;-79
2021/05/18 18:01:19;;;;;;;2.90;1.20;;;8.60;96.30;;;;;;5013787;28;20222;-79
2021/05/18 18:03:45;;;;;;;1.40;1.20;;;8.60;96.30;;;;;;5013812;28;20601;-79
2021/05/18 18:06:10;;;;;;;1.60;1.40;;;8.50;96.30;;;;;;5011018;28;20544;-79
2021/05/18 18:08:39;;;;;;;5.53;1.17;;;8.50;96.30;;;;;;5014870;28;20219;-79
2021/05/18 18:11:05;;;;;;;7.57;1.97;;;8.50;96.30;;;;;;5012076;28;20194;-80
2021/05/18 18:13:30;;;;;;;1.77;1.00;;;8.40;96.30;;;;;;5009768;28;20452;-80
2021/05/18 18:15:56;;;;;;;2.83;1.17;;;8.40;96.30;;;;;;5006948;28;20173;-79
2021/05/18 18:18:22;;;;;;;1.23;0.93;;;8.40;96.30;;;;;;4992770;28;20177;-79
2021/05/18 18:20:47;;;;;;;1.47;1.27;;;8.30;96.30;;;;;;4992966;28;20220;-79
2021/05/18 18:23:13;;;;;;;2.13;1.30;;;8.20;96.30;;;;;;4993117;28;20201;-80
2021/05/18 18:25:38;;;;;;;4.13;1.60;;;8.10;96.30;;;;;;4993399;28;20187;-80
2021/05/18 18:28:04;;;;;;;4.20;1.30;;;8.10;96.30;;;;;;4993031;28;20174;-79
2021/05/18 18:30:29;;;;;;;1.80;1.70;;;8.00;96.30;;;;;;4991863;28;20174;-80
2021/05/18 18:32:55;;;;;;;3.27;1.50;;;7.90;96.30;;;;;;4993133;28;20181;-79
2021/05/18 18:35:20;;;;;;;2.93;1.43;;;7.80;96.30;;;;;;4986029;28;20220;-79
2021/05/18 18:37:46;;;;;;;1.90;1.70;;;7.80;96.30;;;;;;4980460;28;20268;-80
2021/05/18 18:40:13;;;;;;;3.10;1.80;;;7.70;96.30;;;;;;4993099;28;20649;-79
2021/05/18 18:42:39;;;;;;;1.77;1.50;;;7.60;96.30;;;;;;4998166;28;20220;-79
2021/05/18 18:45:09;;;;;;;1.87;1.50;;;7.50;96.30;;;;;;5007697;28;20424;-80
2021/05/18 18:47:34;;;;;;;2.13;1.93;;;7.20;96.30;;;;;;4993081;28;20401;-80
2021/05/18 18:50:03;;;;;;;1.80;1.27;;;7.10;96.30;;;;;;4993472;28;20461;-79
2021/05/18 18:55:06;;;;;;;2.53;2.07;;;7.00;96.30;;;;;;4994650;28;20397;-79
2021/05/18 18:57:32;;;;;;;2.90;1.93;;;6.90;96.30;;;;;;4992648;28;20393;-79
2021/05/18 18:59:57;;;;;;;4.03;3.63;;;6.90;96.30;;;;;;4994714;28;20442;-79
2021/05/18 19:02:30;;;;;;;2.23;2.03;;;6.90;96.30;;;;;;4997286;28;20213;-79
2021/05/18 19:04:58;;;;;;;5.93;3.03;;;6.80;96.30;;;;;;4997500;28;20146;-79
2021/05/18 19:07:30;;;;;;;2.40;1.73;;;6.80;96.30;;;;;;4995457;28;20433;-79
2021/05/18 19:10:17;;;;;;;4.73;4.33;;;6.80;96.30;;;;;;4997217;28;20856;-80
2021/05/18 19:12:49;;;;;;;2.43;2.23;;;6.80;96.30;;;;;;4995888;28;20435;-80
2021/05/18 19:15:15;;;;;;;16.40;11.30;;;6.80;96.30;;;;;;4996455;28;20405;-79
2021/05/18 19:17:42;;;;;;;4.57;3.73;;;6.80;96.30;;;;;;4994542;28;20780;-79
2021/05/18 19:20:10;;;;;;;23.07;16.93;;;6.90;96.30;;;;;;4996817;28;20921;-79
2021/05/18 19:22:37;;;;;;;10.03;7.50;;;6.90;96.30;;;;;;4996521;28;20424;-79
2021/05/18 19:25:06;;;;;;;1.97;1.77;;;6.90;96.30;;;;;;4996341;28;20452;-79
2021/05/18 19:27:37;;;;;;;2.27;1.77;;;6.80;96.30;;;;;;4995773;28;20419;-79
2021/05/18 19:30:06;;;;;;;1.40;1.30;;;6.90;96.30;;;;;;4996220;28;20467;-79
2021/05/18 19:32:32;;;;;;;2.73;0.90;;;6.90;96.30;;;;;;4996227;28;20452;-79
2021/05/18 19:34:58;;;;;;;2.17;1.10;;;6.90;96.30;;;;;;4996354;28;20494;-79
2021/05/18 19:37:35;;;;;;;3.63;1.00;;;6.90;96.30;;;;;;4998391;28;20173;-79
2021/05/18 19:43:07;;;;;;;1.53;0.93;;;6.80;96.30;;;;;;4996539;28;20451;-79
2021/05/18 19:48:13;;;;;;;2.23;2.03;;;6.80;96.30;;;;;;4995531;28;20409;-79
2021/05/18 19:50:39;;;;;;;2.07;1.87;;;6.80;96.30;;;;;;4994551;28;20424;-79
2021/05/18 19:53:12;;;;;;;1.80;1.20;;;6.70;96.30;;;;;;4995856;28;20776;-79
2021/05/18 19:55:56;;;;;;;1.40;1.30;;;6.70;96.30;;;;;;4995863;28;20161;-79
2021/05/18 20:10:07;;;;;;;1.00;0.80;;;6.80;96.30;;;;;;5015498;28;20430;-80
2021/05/18 20:20:24;;;;;;;1.40;0.90;;;6.70;96.30;;;;;;5015656;28;20427;-80
2021/05/18 20:22:51;;;;;;;1.10;1.00;;;6.60;96.30;;;;;;5015128;28;20482;-80
2021/05/18 20:25:17;;;;;;;0.90;0.80;;;6.70;96.30;;;;;;5015569;28;20411;-80
2021/05/18 20:27:42;;;;;;;0.90;0.80;;;6.80;96.30;;;;;;5014727;28;20807;-80
2021/05/18 20:30:09;;;;;;;1.20;0.90;;;6.70;96.30;;;;;;5015077;28;20201;-80
2021/05/18 20:32:34;;;;;;;1.70;1.20;;;6.70;96.30;;;;;;4998539;28;20576;-80
2021/05/18 20:35:28;;;;;;;2.50;1.50;;;6.80;96.30;;;;;;4997068;28;20409;-79
2021/05/18 20:40:38;;;;;;;2.70;1.90;;;6.80;96.30;;;;;;4997345;28;20423;-80
2021/05/18 20:43:03;;;;;;;2.33;2.13;;;6.80;96.30;;;;;;5015253;28;20443;-80
2021/05/18 20:45:29;;;;;;;2.40;2.00;;;6.80;96.30;;;;;;5013233;28;20177;-80
2021/05/18 20:47:55;;;;;;;1.60;1.30;;;6.80;96.30;;;;;;4996709;28;20227;-80
2021/05/18 20:50:22;;;;;;;3.40;2.70;;;6.80;96.30;;;;;;4996308;28;20178;-81
2021/05/18 20:52:49;;;;;;;1.57;1.47;;;6.80;96.30;;;;;;4996359;28;20416;-80
2021/05/18 20:55:16;;;;;;;2.13;2.03;;;6.80;96.30;;;;;;4996165;28;20409;-80
2021/05/18 20:57:43;;;;;;;3.43;1.73;;;6.90;96.30;;;;;;4995567;28;20555;-80
2021/05/18 21:00:11;;;;;;;1.43;1.20;;;6.90;96.30;;;;;;4996289;28;20773;-80
2021/05/18 21:02:37;;;;;;;2.97;1.10;;;6.90;96.30;;;;;;5015602;28;20439;-80
2021/05/18 21:05:06;;;;;;;2.60;1.33;;;7.00;96.30;;;;;;5015538;28;20412;-80
2021/05/18 21:07:39;;;;;;;1.53;1.27;;;7.00;96.30;;;;;;5001865;28;20244;-80
2021/05/18 21:10:32;;;;;;;1.60;1.10;;;7.10;96.30;;;;;;4995229;28;20444;-80
2021/05/18 21:13:19;;;;;;;2.33;1.27;;;7.10;96.30;;;;;;4986807;28;20418;-80
2021/05/18 21:15:48;;;;;;;2.60;1.30;;;7.20;96.30;;;;;;4986075;28;20401;-80
2021/05/18 21:18:15;;;;;;;1.80;1.20;;;7.20;96.30;;;;;;4990985;28;20424;-79
2021/05/18 21:20:41;;;;;;;2.80;1.87;;;7.30;96.30;;;;;;4973717;28;20429;-79
2021/05/18 21:23:06;;;;;;;1.30;1.20;;;7.30;96.30;;;;;;4973906;28;21316;-79
2021/05/18 21:25:32;;;;;;;1.93;1.73;;;7.30;96.30;;;;;;4974852;28;20178;-79
2021/05/18 21:27:57;;;;;;;2.00;1.20;;;7.30;96.30;;;;;;4974769;28;20192;-79
2021/05/18 21:30:23;;;;;;;2.57;1.37;;;7.30;96.30;;;;;;4990642;28;20177;-79
2021/05/18 21:32:48;;;;;;;3.73;1.60;;;7.30;96.30;;;;;;4994965;28;20419;-79
2021/05/18 21:35:14;;;;;;;3.33;2.17;;;7.30;96.30;;;;;;4995082;28;20178;-79
2021/05/18 21:37:40;;;;;;;2.60;1.70;;;7.30;96.30;;;;;;4994489;28;20182;-79
2021/05/18 21:40:11;;;;;;;4.00;1.30;;;7.30;96.30;;;;;;4994677;28;20173;-79
2021/05/18 21:42:40;;;;;;;3.10;1.40;;;7.40;96.30;;;;;;4994885;28;20586;-79